Time;durP1;ratioP1;P1;durP2;ratioP2;P2;SDS_P1;SDS_P2;PMS_P1;PMS_P2;Temp;Humidity;BMP_temperature;BMP_pressure;BME280_temperature;BME280_humidity;BME280_pressure;Samples;Min_cycle;Max_cycle;Signal;HPM_P1;HPM_P2
2023/08/25 00:02:18;;;;;;;12.20;10.90;;;;;;;;;;5073558;28;20123;-63
2023/08/25 00:04:44;;;;;;;12.70;10.07;;;;;;;;;;5074297;28;20036;-63
2023/08/25 00:07:10;;;;;;;16.58;10.73;;;;;;;;;;5074307;28;20045;-63
2023/08/25 00:09:36;;;;;;;15.30;11.55;;;;;;;;;;5073387;28;20089;-63
2023/08/25 00:12:03;;;;;;;12.57;10.35;;;;;;;;;;5074051;28;20076;-63
2023/08/25 00:14:29;;;;;;;15.13;12.15;;;;;;;;;;5072987;28;20088;-63
2023/08/25 00:16:55;;;;;;;19.30;12.85;;;;;;;;;;5073850;28;20033;-63
2023/08/25 00:19:21;;;;;;;12.07;10.50;;;;;;;;;;5074109;28;20155;-63
2023/08/25 00:21:47;;;;;;;16.83;12.05;;;;;;;;;;5073572;28;20037;-63
2023/08/25 00:24:13;;;;;;;15.82;11.32;;;;;;;;;;5073952;28;20043;-63
2023/08/25 00:26:39;;;;;;;14.30;11.35;;;;;;;;;;5087544;28;20493;-63
2023/08/25 00:29:06;;;;;;;13.02;11.35;;;;;;;;;;5092377;28;20063;-63
2023/08/25 00:31:32;;;;;;;16.35;12.02;;;;;;;;;;5093645;28;20074;-63
2023/08/25 00:33:58;;;;;;;20.48;12.60;;;;;;;;;;5091988;28;20036;-63
2023/08/25 00:36:24;;;;;;;13.43;11.45;;;;;;;;;;5093995;28;20123;-63
2023/08/25 00:38:51;;;;;;;15.25;12.48;;;;;;;;;;5093994;28;20036;-63
2023/08/25 00:41:17;;;;;;;13.88;12.40;;;;;;;;;;5093479;28;20040;-63
2023/08/25 00:43:43;;;;;;;16.33;12.38;;;;;;;;;;5093956;28;20474;-63
2023/08/25 00:46:10;;;;;;;13.82;11.50;;;;;;;;;;5093768;28;20131;-63
2023/08/25 00:48:37;;;;;;;15.75;12.90;;;;;;;;;;5092209;28;20032;-63
2023/08/25 00:51:05;;;;;;;13.80;12.30;;;;;;;;;;5073420;28;20036;-63
2023/08/25 00:53:31;;;;;;;16.52;12.90;;;;;;;;;;5073510;28;20041;-63
2023/08/25 00:55:57;;;;;;;17.50;12.23;;;;;;;;;;5073171;28;20072;-63
2023/08/25 00:58:23;;;;;;;15.10;13.40;;;;;;;;;;5073498;28;20083;-63
2023/08/25 01:00:50;;;;;;;15.77;13.40;;;;;;;;;;5073378;28;20040;-63
2023/08/25 01:03:16;;;;;;;16.00;12.57;;;;;;;;;;5072818;28;20090;-63
2023/08/25 01:05:42;;;;;;;18.20;13.90;;;;;;;;;;5071723;28;20032;-63
2023/08/25 01:08:08;;;;;;;15.63;12.55;;;;;;;;;;5073076;28;20123;-63
2023/08/25 01:10:45;;;;;;;18.15;14.32;;;;;;;;;;5072335;28;20048;-63
2023/08/25 01:13:19;;;;;;;16.20;13.38;;;;;;;;;;5072837;28;20052;-63
2023/08/25 01:15:47;;;;;;;18.27;15.20;;;;;;;;;;5072843;28;20056;-63
2023/08/25 01:18:17;;;;;;;21.38;15.40;;;;;;;;;;5072579;28;20036;-63
2023/08/25 01:20:46;;;;;;;18.13;13.25;;;;;;;;;;5072903;28;20056;-63
2023/08/25 01:23:12;;;;;;;18.67;15.77;;;;;;;;;;5072838;28;20076;-63
2023/08/25 01:25:38;;;;;;;19.25;16.23;;;;;;;;;;5077506;28;20044;-63
2023/08/25 01:28:05;;;;;;;17.95;15.23;;;;;;;;;;5092778;28;20051;-63
2023/08/25 01:30:33;;;;;;;19.30;16.27;;;;;;;;;;5092840;28;20047;-63
2023/08/25 01:32:59;;;;;;;24.40;18.67;;;;;;;;;;5092132;28;20036;-63
2023/08/25 01:35:46;;;;;;;21.40;17.35;;;;;;;;;;5092827;28;20036;-63
2023/08/25 01:38:24;;;;;;;26.75;19.40;;;;;;;;;;5091756;28;20052;-63
2023/08/25 01:41:05;;;;;;;21.75;17.80;;;;;;;;;;5092745;28;20047;-63
2023/08/25 01:43:33;;;;;;;21.60;16.88;;;;;;;;;;5092747;28;20127;-63
2023/08/25 01:46:00;;;;;;;22.52;19.35;;;;;;;;;;5092145;28;20096;-63
2023/08/25 01:48:27;;;;;;;22.90;18.48;;;;;;;;;;5092577;28;20043;-63
2023/08/25 01:50:53;;;;;;;26.38;19.98;;;;;;;;;;5072331;28;20374;-63
2023/08/25 01:53:20;;;;;;;24.02;19.15;;;;;;;;;;5071888;28;20041;-63
2023/08/25 01:55:46;;;;;;;26.30;19.40;;;;;;;;;;5072033;28;20127;-63
2023/08/25 01:58:13;;;;;;;23.20;18.88;;;;;;;;;;5072189;28;20041;-63
2023/08/25 02:00:39;;;;;;;24.67;19.02;;;;;;;;;;5071678;28;20040;-63
2023/08/25 02:03:05;;;;;;;26.67;21.05;;;;;;;;;;5072052;28;20055;-63
2023/08/25 02:05:31;;;;;;;23.13;19.48;;;;;;;;;;5071902;28;20518;-63
2023/08/25 02:07:57;;;;;;;25.52;20.63;;;;;;;;;;5071334;28;20119;-63
2023/08/25 02:10:23;;;;;;;26.45;20.80;;;;;;;;;;5071925;28;20119;-63
2023/08/25 02:12:49;;;;;;;33.85;22.45;;;;;;;;;;5071889;28;20424;-63
2023/08/25 02:15:15;;;;;;;26.75;20.80;;;;;;;;;;5070624;28;20046;-63
2023/08/25 02:17:41;;;;;;;25.63;21.08;;;;;;;;;;5071568;28;20471;-63
2023/08/25 02:20:08;;;;;;;30.15;24.20;;;;;;;;;;5071789;28;20048;-63
2023/08/25 02:22:34;;;;;;;29.27;22.15;;;;;;;;;;5071452;28;20044;-63
2023/08/25 02:25:00;;;;;;;31.23;25.58;;;;;;;;;;5071000;28;20048;-63
2023/08/25 02:27:26;;;;;;;35.40;24.00;;;;;;;;;;5090805;28;20557;-63
2023/08/25 02:29:52;;;;;;;32.72;25.48;;;;;;;;;;5091343;28;20050;-63
2023/08/25 02:32:18;;;;;;;30.13;24.08;;;;;;;;;;5091577;28;20471;-63
2023/08/25 02:34:44;;;;;;;34.05;25.23;;;;;;;;;;5091691;28;20050;-63
2023/08/25 02:37:10;;;;;;;30.55;25.58;;;;;;;;;;5091576;28;20089;-63
2023/08/25 02:39:37;;;;;;;30.10;23.70;;;;;;;;;;5091375;28;20051;-63
2023/08/25 02:42:03;;;;;;;32.30;24.63;;;;;;;;;;5091733;28;20032;-63
2023/08/25 02:44:29;;;;;;;29.58;24.33;;;;;;;;;;5091736;28;20501;-63
2023/08/25 02:46:55;;;;;;;33.38;25.70;;;;;;;;;;5091411;28;20044;-63
2023/08/25 02:49:21;;;;;;;39.10;27.85;;;;;;;;;;5084435;28;20170;-63
2023/08/25 02:51:47;;;;;;;40.47;28.60;;;;;;;;;;5071444;28;20036;-63
2023/08/25 02:54:13;;;;;;;38.95;29.65;;;;;;;;;;5069733;28;20115;-63
2023/08/25 02:56:39;;;;;;;34.97;28.00;;;;;;;;;;5071348;28;20569;-63
2023/08/25 02:59:05;;;;;;;38.97;28.50;;;;;;;;;;5071194;28;20040;-63
2023/08/25 03:01:31;;;;;;;33.47;26.95;;;;;;;;;;5070940;28;20045;-63
2023/08/25 03:03:57;;;;;;;37.05;29.33;;;;;;;;;;5069807;28;20048;-63
2023/08/25 03:06:23;;;;;;;39.55;29.27;;;;;;;;;;5071125;28;20067;-63
2023/08/25 03:08:49;;;;;;;35.40;28.00;;;;;;;;;;5070914;28;20265;-63
2023/08/25 03:11:15;;;;;;;40.17;30.58;;;;;;;;;;5070956;28;20439;-63
2023/08/25 03:13:41;;;;;;;43.28;28.98;;;;;;;;;;5071248;28;20097;-63
2023/08/25 03:16:07;;;;;;;35.75;28.73;;;;;;;;;;5070940;28;20137;-63
2023/08/25 03:18:34;;;;;;;36.83;27.58;;;;;;;;;;5071235;28;20041;-63
2023/08/25 03:21:00;;;;;;;38.83;29.25;;;;;;;;;;5071183;28;20040;-63
2023/08/25 03:23:26;;;;;;;39.05;29.05;;;;;;;;;;5069492;28;20044;-63
2023/08/25 03:25:52;;;;;;;34.63;27.10;;;;;;;;;;5078385;28;20043;-63
2023/08/25 03:28:18;;;;;;;37.63;29.30;;;;;;;;;;5091050;28;20155;-63
2023/08/25 03:30:44;;;;;;;38.97;29.00;;;;;;;;;;5090497;28;20123;-63
2023/08/25 03:33:10;;;;;;;36.17;27.55;;;;;;;;;;5091075;28;20043;-63
2023/08/25 03:35:36;;;;;;;35.60;27.50;;;;;;;;;;5093831;28;20040;-63
2023/08/25 03:38:03;;;;;;;40.80;28.80;;;;;;;;;;5094842;28;20035;-63
2023/08/25 03:40:29;;;;;;;41.65;29.45;;;;;;;;;;5094955;28;20462;-63
2023/08/25 03:42:55;;;;;;;33.08;25.80;;;;;;;;;;5094968;28;20044;-63
2023/08/25 03:45:21;;;;;;;37.65;27.67;;;;;;;;;;5094564;28;20062;-63
2023/08/25 03:47:47;;;;;;;37.40;28.15;;;;;;;;;;5093534;28;20039;-63
2023/08/25 03:50:13;;;;;;;37.70;27.92;;;;;;;;;;5079890;28;20048;-63
2023/08/25 03:52:39;;;;;;;45.33;30.17;;;;;;;;;;5074245;28;20371;-63
2023/08/25 03:55:05;;;;;;;39.65;29.08;;;;;;;;;;5074460;28;20037;-63
2023/08/25 03:57:32;;;;;;;39.88;28.88;;;;;;;;;;5074633;28;20403;-63
2023/08/25 03:59:58;;;;;;;46.97;31.95;;;;;;;;;;5073662;28;20040;-63
2023/08/25 04:02:24;;;;;;;37.03;28.88;;;;;;;;;;5074152;28;20127;-63
2023/08/25 04:04:50;;;;;;;41.58;30.20;;;;;;;;;;5074227;28;20037;-63
2023/08/25 04:07:16;;;;;;;49.80;33.10;;;;;;;;;;5073863;28;20485;-63
2023/08/25 04:09:42;;;;;;;42.30;31.27;;;;;;;;;;5074373;28;20115;-63
2023/08/25 04:12:08;;;;;;;48.45;34.50;;;;;;;;;;5074234;28;20132;-63
2023/08/25 04:14:34;;;;;;;50.30;34.13;;;;;;;;;;5073638;28;20422;-63
2023/08/25 04:17:00;;;;;;;42.25;30.63;;;;;;;;;;5074292;28;20033;-63
2023/08/25 04:19:26;;;;;;;47.85;32.53;;;;;;;;;;5074039;28;20045;-63
2023/08/25 04:21:52;;;;;;;53.00;35.13;;;;;;;;;;5073441;28;20070;-63
2023/08/25 04:24:18;;;;;;;48.92;32.75;;;;;;;;;;5073878;28;20119;-63
2023/08/25 04:26:44;;;;;;;48.20;32.42;;;;;;;;;;5088483;28;20052;-63
2023/08/25 04:29:10;;;;;;;44.38;32.45;;;;;;;;;;5093137;28;20613;-63
2023/08/25 04:31:37;;;;;;;48.75;33.25;;;;;;;;;;5093607;28;20123;-63
2023/08/25 04:34:05;;;;;;;47.42;31.10;;;;;;;;;;5094042;28;20374;-63
2023/08/25 04:36:33;;;;;;;48.20;33.15;;;;;;;;;;5093201;28;20074;-63
2023/08/25 04:38:59;;;;;;;49.95;33.78;;;;;;;;;;5093949;28;20048;-63
2023/08/25 04:41:25;;;;;;;51.00;32.88;;;;;;;;;;5093719;28;20079;-63
2023/08/25 04:43:51;;;;;;;54.85;34.47;;;;;;;;;;5093497;28;20052;-63
2023/08/25 04:46:17;;;;;;;58.10;36.40;;;;;;;;;;5093004;28;20032;-63
2023/08/25 04:48:46;;;;;;;49.08;33.28;;;;;;;;;;5091712;28;20047;-63
2023/08/25 04:51:12;;;;;;;56.30;35.92;;;;;;;;;;5073036;28;20041;-63
2023/08/25 04:53:38;;;;;;;55.05;37.03;;;;;;;;;;5073298;28;20072;-63
2023/08/25 04:56:04;;;;;;;53.72;36.58;;;;;;;;;;5073234;28;20090;-63
2023/08/25 04:58:31;;;;;;;67.40;39.72;;;;;;;;;;5072903;28;20044;-63
2023/08/25 05:00:57;;;;;;;61.28;38.83;;;;;;;;;;5073288;28;20158;-63
2023/08/25 05:03:23;;;;;;;59.63;39.95;;;;;;;;;;5071983;28;20076;-63
2023/08/25 05:05:49;;;;;;;59.50;38.95;;;;;;;;;;5072483;28;20044;-63
2023/08/25 05:08:15;;;;;;;56.25;38.20;;;;;;;;;;5072887;28;20036;-63
2023/08/25 05:10:41;;;;;;;57.92;37.50;;;;;;;;;;5072966;28;20119;-63
2023/08/25 05:13:07;;;;;;;53.13;37.28;;;;;;;;;;5072733;28;20044;-63
2023/08/25 05:15:33;;;;;;;59.20;37.90;;;;;;;;;;5072972;28;20044;-63
2023/08/25 05:18:00;;;;;;;59.20;39.30;;;;;;;;;;5072913;28;20048;-63
2023/08/25 05:20:26;;;;;;;58.38;38.55;;;;;;;;;;5072338;28;20098;-63
2023/08/25 05:22:52;;;;;;;58.03;39.22;;;;;;;;;;5072672;28;20478;-63
2023/08/25 05:25:21;;;;;;;60.10;37.97;;;;;;;;;;5075096;28;20139;-63
2023/08/25 05:27:47;;;;;;;58.63;38.17;;;;;;;;;;5092419;28;20047;-63
2023/08/25 05:30:14;;;;;;;62.92;39.70;;;;;;;;;;5092407;28;20048;-63
2023/08/25 05:32:40;;;;;;;61.83;37.67;;;;;;;;;;5092957;28;20463;-63
2023/08/25 05:35:06;;;;;;;55.97;36.03;;;;;;;;;;5092512;28;20047;-63
2023/08/25 05:37:33;;;;;;;62.42;39.03;;;;;;;;;;5092626;28;20040;-63
2023/08/25 05:39:59;;;;;;;62.13;40.58;;;;;;;;;;5092621;28;20063;-63
2023/08/25 05:42:31;;;;;;;67.28;38.85;;;;;;;;;;5091342;28;20051;-63
2023/08/25 05:44:57;;;;;;;61.75;38.70;;;;;;;;;;5092340;28;20524;-63
2023/08/25 05:47:23;;;;;;;70.18;40.78;;;;;;;;;;5092652;28;20040;-63
2023/08/25 05:49:50;;;;;;;65.07;41.20;;;;;;;;;;5081142;28;20560;-63
2023/08/25 05:52:16;;;;;;;62.15;40.05;;;;;;;;;;5071906;28;20036;-63
2023/08/25 05:54:42;;;;;;;62.17;38.80;;;;;;;;;;5072341;28;20424;-63
2023/08/25 05:57:08;;;;;;;55.88;37.85;;;;;;;;;;5071961;28;20048;-63
2023/08/25 05:59:34;;;;;;;64.60;39.42;;;;;;;;;;5070842;28;20604;-66
2023/08/25 06:02:00;;;;;;;63.90;39.55;;;;;;;;;;5086320;28;20040;-65
2023/08/25 06:04:26;;;;;;;60.97;40.35;;;;;;;;;;5091880;28;20440;-66
2023/08/25 06:06:52;;;;;;;64.97;39.78;;;;;;;;;;5091227;28;20076;-66
2023/08/25 06:09:19;;;;;;;59.53;39.58;;;;;;;;;;5090978;28;20032;-64
2023/08/25 06:11:45;;;;;;;67.95;41.42;;;;;;;;;;5090710;28;20087;-65
2023/08/25 06:14:11;;;;;;;64.95;40.03;;;;;;;;;;5090335;28;20036;-66
2023/08/25 06:16:38;;;;;;;59.22;38.10;;;;;;;;;;5091719;28;20040;-66
2023/08/25 06:19:04;;;;;;;61.00;40.22;;;;;;;;;;5091549;28;20464;-64
2023/08/25 06:21:30;;;;;;;55.70;36.97;;;;;;;;;;5091173;28;20563;-64
2023/08/25 06:23:56;;;;;;;65.45;39.13;;;;;;;;;;5091669;28;20105;-64
2023/08/25 06:26:22;;;;;;;64.90;40.47;;;;;;;;;;5091383;28;20447;-66
2023/08/25 06:28:49;;;;;;;63.75;40.50;;;;;;;;;;5090448;28;20052;-65
2023/08/25 06:31:16;;;;;;;58.38;39.53;;;;;;;;;;5091676;28;20355;-66
2023/08/25 06:33:42;;;;;;;62.10;38.08;;;;;;;;;;5091407;28;20036;-65
2023/08/25 06:36:09;;;;;;;60.25;39.60;;;;;;;;;;5091137;28;20047;-66
2023/08/25 06:38:35;;;;;;;60.60;38.47;;;;;;;;;;5076794;28;20055;-65
2023/08/25 06:41:01;;;;;;;56.10;38.28;;;;;;;;;;5078535;28;20040;-66
2023/08/25 06:43:27;;;;;;;57.95;37.22;;;;;;;;;;5082301;28;20044;-65
2023/08/25 06:45:54;;;;;;;62.90;39.25;;;;;;;;;;5081520;28;20040;-65
2023/08/25 06:48:20;;;;;;;59.33;39.00;;;;;;;;;;5078975;28;20066;-64
2023/08/25 06:50:46;;;;;;;60.42;39.70;;;;;;;;;;5077169;28;20047;-66
2023/08/25 06:53:12;;;;;;;60.78;38.33;;;;;;;;;;5073917;28;20036;-64
2023/08/25 06:55:38;;;;;;;57.97;39.60;;;;;;;;;;5082029;28;20398;-63
2023/08/25 06:58:06;;;;;;;58.65;39.20;;;;;;;;;;5072097;28;20040;-64
2023/08/25 07:00:32;;;;;;;64.05;39.33;;;;;;;;;;5085851;28;20040;-65
2023/08/25 07:03:00;;;;;;;62.45;40.08;;;;;;;;;;5073998;28;20047;-64
2023/08/25 07:05:26;;;;;;;59.05;37.42;;;;;;;;;;5077090;28;20365;-65
2023/08/25 07:07:52;;;;;;;64.53;39.70;;;;;;;;;;5089909;28;20055;-64
2023/08/25 07:10:18;;;;;;;61.65;40.17;;;;;;;;;;5078554;28;20394;-65
2023/08/25 07:12:44;;;;;;;59.58;39.47;;;;;;;;;;5076002;28;20150;-65
2023/08/25 07:15:11;;;;;;;59.92;38.95;;;;;;;;;;5085794;28;20047;-65
2023/08/25 07:17:37;;;;;;;57.60;37.53;;;;;;;;;;5090777;28;20051;-65
2023/08/25 07:20:04;;;;;;;61.78;39.10;;;;;;;;;;5088998;28;20123;-66
2023/08/25 07:22:32;;;;;;;54.55;36.15;;;;;;;;;;5085542;28;20055;-65
2023/08/25 07:24:58;;;;;;;58.00;38.78;;;;;;;;;;5085640;28;20366;-65
2023/08/25 07:27:25;;;;;;;57.25;37.80;;;;;;;;;;5093235;28;20845;-65
2023/08/25 07:29:53;;;;;;;61.47;37.47;;;;;;;;;;5091236;28;20044;-65
2023/08/25 07:32:19;;;;;;;55.88;37.92;;;;;;;;;;5079892;28;20123;-65
2023/08/25 07:34:45;;;;;;;57.33;37.38;;;;;;;;;;5089793;28;20048;-66
2023/08/25 07:37:12;;;;;;;51.03;35.85;;;;;;;;;;5088726;28;20036;-64
2023/08/25 07:39:39;;;;;;;57.13;37.72;;;;;;;;;;5074784;28;20449;-64
2023/08/25 07:42:06;;;;;;;58.70;38.78;;;;;;;;;;5089247;28;20104;-64
2023/08/25 07:44:32;;;;;;;56.42;36.70;;;;;;;;;;5092862;28;20040;-65
2023/08/25 07:46:58;;;;;;;53.33;35.60;;;;;;;;;;5093491;28;20661;-65
2023/08/25 07:49:24;;;;;;;56.92;38.28;;;;;;;;;;5084859;28;20423;-65
2023/08/25 07:51:50;;;;;;;62.40;39.78;;;;;;;;;;5085360;28;20036;-65
2023/08/25 07:54:16;;;;;;;64.60;39.03;;;;;;;;;;5085952;28;20051;-64
2023/08/25 07:56:42;;;;;;;55.83;35.85;;;;;;;;;;5092082;28;20089;-65
2023/08/25 07:59:10;;;;;;;62.30;38.30;;;;;;;;;;5086744;28;20070;-66
2023/08/25 08:01:36;;;;;;;53.60;35.95;;;;;;;;;;5080743;28;20134;-66
2023/08/25 08:04:03;;;;;;;62.38;38.58;;;;;;;;;;5079283;28;20035;-66
2023/08/25 08:06:29;;;;;;;62.35;38.50;;;;;;;;;;5089836;28;20128;-65
2023/08/25 08:08:55;;;;;;;55.38;35.30;;;;;;;;;;5090866;28;20036;-65
2023/08/25 08:11:22;;;;;;;55.90;36.00;;;;;;;;;;5074446;28;20082;-66
2023/08/25 08:13:48;;;;;;;52.08;34.45;;;;;;;;;;5082822;28;20055;-66
2023/08/25 08:16:14;;;;;;;49.55;34.13;;;;;;;;;;5080252;28;20495;-66
2023/08/25 08:18:40;;;;;;;54.47;35.45;;;;;;;;;;5084225;28;20119;-65
2023/08/25 08:21:07;;;;;;;49.58;33.45;;;;;;;;;;5083298;28;20040;-66
2023/08/25 08:23:33;;;;;;;50.25;34.53;;;;;;;;;;5084232;28;20049;-66
2023/08/25 08:25:59;;;;;;;52.42;35.53;;;;;;;;;;5082861;28;20059;-66
2023/08/25 08:28:25;;;;;;;51.83;33.85;;;;;;;;;;5078304;28;20052;-65
2023/08/25 08:30:51;;;;;;;53.40;34.90;;;;;;;;;;5092419;28;20044;-65
2023/08/25 08:33:18;;;;;;;53.90;32.10;;;;;;;;;;5091146;28;20036;-66
2023/08/25 08:35:44;;;;;;;45.25;29.88;;;;;;;;;;5090884;28;20083;-65
2023/08/25 08:38:10;;;;;;;48.65;31.40;;;;;;;;;;5091827;28;20089;-65
2023/08/25 08:40:36;;;;;;;46.45;31.13;;;;;;;;;;5086865;28;20039;-65
2023/08/25 08:43:03;;;;;;;48.65;31.63;;;;;;;;;;5092179;28;20043;-67
2023/08/25 08:45:34;;;;;;;42.97;32.38;;;;;;;;;;5078500;28;20042;-67
2023/08/25 08:48:04;;;;;;;49.33;32.35;;;;;;;;;;5076971;28;20041;-67
2023/08/25 08:50:31;;;;;;;48.35;31.38;;;;;;;;;;5078642;28;20047;-67
2023/08/25 08:52:58;;;;;;;48.90;32.17;;;;;;;;;;5074581;28;20045;-65
2023/08/25 08:55:24;;;;;;;50.58;32.55;;;;;;;;;;5073424;28;20538;-66
2023/08/25 08:57:51;;;;;;;51.88;32.63;;;;;;;;;;5086934;28;20063;-66
2023/08/25 09:00:18;;;;;;;47.15;32.13;;;;;;;;;;5083833;28;20048;-65
2023/08/25 09:02:50;;;;;;;51.97;33.15;;;;;;;;;;5088985;28;20090;-65
2023/08/25 09:05:18;;;;;;;47.42;31.92;;;;;;;;;;5090961;28;20044;-64
2023/08/25 09:07:47;;;;;;;48.70;31.55;;;;;;;;;;5092209;28;20043;-68
2023/08/25 09:10:13;;;;;;;48.83;33.60;;;;;;;;;;5083083;28;20147;-66
2023/08/25 09:12:39;;;;;;;49.83;33.45;;;;;;;;;;5074663;28;20047;-65
2023/08/25 09:15:07;;;;;;;46.90;31.55;;;;;;;;;;5084366;28;20128;-65
2023/08/25 09:17:35;;;;;;;44.92;29.50;;;;;;;;;;5084463;28;20103;-66
2023/08/25 09:20:05;;;;;;;47.35;31.20;;;;;;;;;;5089526;28;20048;-66
2023/08/25 09:22:31;;;;;;;48.25;31.83;;;;;;;;;;5089038;28;20044;-64
2023/08/25 09:25:00;;;;;;;47.90;32.50;;;;;;;;;;5083105;28;20394;-64
2023/08/25 09:27:27;;;;;;;47.97;32.15;;;;;;;;;;5084790;28;20658;-65
2023/08/25 09:30:03;;;;;;;49.50;31.67;;;;;;;;;;5090567;28;20060;-64
2023/08/25 09:32:30;;;;;;;46.90;31.17;;;;;;;;;;5086396;28;20071;-65
2023/08/25 09:34:56;;;;;;;48.63;32.38;;;;;;;;;;5091756;28;20127;-64
2023/08/25 09:37:23;;;;;;;52.65;33.47;;;;;;;;;;5088201;28;20036;-64
2023/08/25 09:39:50;;;;;;;50.05;31.00;;;;;;;;;;5090616;28;20047;-64
2023/08/25 09:42:17;;;;;;;46.08;30.08;;;;;;;;;;5088468;28;20054;-68
2023/08/25 09:44:43;;;;;;;43.42;30.15;;;;;;;;;;5088231;28;20097;-67
2023/08/25 09:47:09;;;;;;;46.97;30.52;;;;;;;;;;5090453;28;20109;-66
2023/08/25 09:49:40;;;;;;;43.97;30.00;;;;;;;;;;5083523;28;20047;-65
2023/08/25 09:52:09;;;;;;;44.22;29.50;;;;;;;;;;5091161;28;20070;-67
2023/08/25 09:54:35;;;;;;;42.65;27.63;;;;;;;;;;5075015;28;20071;-67
2023/08/25 09:57:02;;;;;;;44.80;29.05;;;;;;;;;;5074544;28;20036;-65
2023/08/25 09:59:28;;;;;;;45.28;30.02;;;;;;;;;;5089149;28;20047;-65
2023/08/25 10:01:54;;;;;;;44.88;29.38;;;;;;;;;;5090440;28;20109;-65
2023/08/25 10:04:22;;;;;;;46.55;30.23;;;;;;;;;;5088645;28;20044;-65
2023/08/25 10:06:48;;;;;;;48.50;32.15;;;;;;;;;;5085945;28;20419;-66
2023/08/25 10:09:16;;;;;;;41.85;27.27;;;;;;;;;;5087461;28;20040;-65
2023/08/25 10:11:45;;;;;;;44.65;29.88;;;;;;;;;;5081280;28;20040;-66
2023/08/25 10:14:11;;;;;;;40.80;28.83;;;;;;;;;;5089528;28;20040;-64
2023/08/25 10:16:39;;;;;;;39.92;27.55;;;;;;;;;;5087494;28;20036;-66
2023/08/25 10:19:06;;;;;;;35.58;25.00;;;;;;;;;;5090294;28;20044;-66
2023/08/25 10:21:34;;;;;;;36.92;25.38;;;;;;;;;;5085519;28;20513;-64
2023/08/25 10:24:01;;;;;;;43.58;26.17;;;;;;;;;;5083184;28;20580;-66
2023/08/25 10:26:27;;;;;;;40.13;26.63;;;;;;;;;;5089049;28;20052;-66
2023/08/25 10:28:54;;;;;;;38.97;26.23;;;;;;;;;;5090095;28;20593;-66
2023/08/25 10:31:20;;;;;;;37.22;24.15;;;;;;;;;;5076658;28;20540;-65
2023/08/25 10:33:50;;;;;;;34.85;23.73;;;;;;;;;;5081457;28;20028;-66
2023/08/25 10:36:16;;;;;;;31.60;24.00;;;;;;;;;;5073834;28;20044;-66
2023/08/25 10:38:46;;;;;;;31.00;22.55;;;;;;;;;;5076469;28;20067;-67
2023/08/25 10:41:17;;;;;;;32.35;23.10;;;;;;;;;;5089389;28;20070;-65
2023/08/25 10:44:01;;;;;;;31.60;22.20;;;;;;;;;;5090516;28;20394;-65
2023/08/25 10:46:27;;;;;;;29.73;21.67;;;;;;;;;;5081525;28;20040;-65
2023/08/25 10:49:09;;;;;;;30.55;21.77;;;;;;;;;;5084487;28;20043;-65
2023/08/25 10:51:36;;;;;;;27.02;20.83;;;;;;;;;;5085001;28;20044;-66
2023/08/25 10:54:03;;;;;;;29.42;19.73;;;;;;;;;;5082729;28;20040;-66
2023/08/25 10:56:29;;;;;;;23.95;18.13;;;;;;;;;;5080701;28;20126;-66
2023/08/25 10:58:59;;;;;;;23.95;16.00;;;;;;;;;;5087844;28;20501;-66
2023/08/25 11:01:38;;;;;;;24.80;16.38;;;;;;;;;;5081406;28;20059;-65
2023/08/25 11:04:07;;;;;;;23.65;16.58;;;;;;;;;;5091170;28;20093;-65
2023/08/25 11:06:40;;;;;;;24.27;15.93;;;;;;;;;;5085586;28;20502;-67
2023/08/25 11:09:08;;;;;;;23.17;15.05;;;;;;;;;;5086655;28;20036;-63
2023/08/25 11:11:35;;;;;;;25.60;14.75;;;;;;;;;;5072066;28;20411;-64
2023/08/25 11:14:01;;;;;;;19.27;12.82;;;;;;;;;;5078392;28;20032;-64
2023/08/25 11:16:27;;;;;;;20.02;12.15;;;;;;;;;;5090632;28;20181;-65
2023/08/25 11:18:53;;;;;;;17.02;12.13;;;;;;;;;;5090884;28;20044;-65
2023/08/25 11:21:29;;;;;;;19.23;11.30;;;;;;;;;;5091015;28;20494;-65
2023/08/25 11:23:56;;;;;;;15.82;10.65;;;;;;;;;;5090643;28;20048;-65
2023/08/25 11:26:22;;;;;;;20.15;13.38;;;;;;;;;;5090590;28;20048;-65
2023/08/25 11:28:52;;;;;;;20.50;11.88;;;;;;;;;;5090564;28;20048;-65
2023/08/25 11:31:21;;;;;;;14.48;10.02;;;;;;;;;;5090531;28;20051;-65
2023/08/25 11:33:48;;;;;;;15.18;10.23;;;;;;;;;;5091079;28;20044;-65
2023/08/25 11:36:15;;;;;;;16.00;8.88;;;;;;;;;;5091058;28;20050;-66
2023/08/25 11:38:42;;;;;;;14.00;8.95;;;;;;;;;;5090553;28;20048;-66
2023/08/25 11:41:10;;;;;;;16.60;9.32;;;;;;;;;;5090713;28;20048;-65
2023/08/25 11:43:37;;;;;;;13.82;8.45;;;;;;;;;;5090856;28;20044;-66
2023/08/25 11:46:06;;;;;;;16.30;8.60;;;;;;;;;;5072159;28;20127;-64
2023/08/25 11:48:33;;;;;;;15.00;8.00;;;;;;;;;;5090990;28;20111;-64
2023/08/25 11:51:00;;;;;;;17.25;11.07;;;;;;;;;;5090758;28;20032;-64
2023/08/25 11:53:26;;;;;;;17.55;12.27;;;;;;;;;;5085482;28;20145;-64
2023/08/25 11:56:02;;;;;;;19.55;12.80;;;;;;;;;;5092326;28;20099;-67
2023/08/25 11:58:35;;;;;;;18.90;13.05;;;;;;;;;;5094147;28;20127;-67
2023/08/25 12:01:02;;;;;;;22.65;15.93;;;;;;;;;;5094179;28;20044;-64
2023/08/25 12:03:28;;;;;;;23.63;18.67;;;;;;;;;;5094237;28;20048;-66
2023/08/25 12:05:54;;;;;;;21.60;17.20;;;;;;;;;;5094117;28;20143;-64
2023/08/25 12:08:20;;;;;;;21.98;15.90;;;;;;;;;;5093906;28;20120;-64
2023/08/25 12:10:46;;;;;;;19.77;14.73;;;;;;;;;;5093527;28;20561;-64
2023/08/25 12:13:12;;;;;;;20.35;15.13;;;;;;;;;;5094442;28;20394;-64
2023/08/25 12:15:42;;;;;;;21.45;15.75;;;;;;;;;;5093877;28;20055;-65
2023/08/25 12:18:08;;;;;;;20.55;15.52;;;;;;;;;;5094314;28;20056;-66
2023/08/25 12:20:34;;;;;;;21.95;14.70;;;;;;;;;;5094196;28;20044;-66
2023/08/25 12:23:01;;;;;;;23.23;18.70;;;;;;;;;;5093807;28;20048;-66
2023/08/25 12:25:27;;;;;;;20.38;15.73;;;;;;;;;;5092645;28;20075;-66
2023/08/25 12:27:54;;;;;;;21.88;14.32;;;;;;;;;;5094185;28;20075;-65
2023/08/25 12:30:21;;;;;;;19.38;13.35;;;;;;;;;;5092987;28;20511;-67
2023/08/25 12:32:47;;;;;;;18.25;13.98;;;;;;;;;;5093603;28;20036;-67
2023/08/25 12:35:13;;;;;;;18.30;13.45;;;;;;;;;;5092033;28;20044;-66
2023/08/25 12:37:39;;;;;;;23.50;15.80;;;;;;;;;;5092126;28;20547;-66
2023/08/25 12:40:05;;;;;;;20.48;14.15;;;;;;;;;;5093493;28;20181;-65
2023/08/25 12:42:32;;;;;;;15.85;12.02;;;;;;;;;;5093450;28;20105;-65
2023/08/25 12:44:58;;;;;;;11.98;9.95;;;;;;;;;;5093226;28;20051;-65
2023/08/25 12:47:24;;;;;;;11.95;10.02;;;;;;;;;;5093180;28;20032;-65
2023/08/25 12:49:50;;;;;;;14.13;8.73;;;;;;;;;;5091679;28;20048;-65
2023/08/25 12:52:16;;;;;;;10.40;8.23;;;;;;;;;;5093051;28;20046;-65
2023/08/25 12:54:43;;;;;;;9.75;8.02;;;;;;;;;;5091894;28;20127;-66
2023/08/25 12:57:09;;;;;;;9.38;6.20;;;;;;;;;;5093252;28;20044;-66
2023/08/25 12:59:35;;;;;;;9.93;7.07;;;;;;;;;;5087547;28;20090;-66
2023/08/25 13:02:01;;;;;;;8.32;7.00;;;;;;;;;;5075389;28;20387;-65
2023/08/25 13:04:28;;;;;;;9.88;8.27;;;;;;;;;;5092946;28;20043;-65
2023/08/25 13:06:54;;;;;;;20.00;9.45;;;;;;;;;;5092065;28;20032;-65
2023/08/25 13:09:20;;;;;;;12.48;9.35;;;;;;;;;;5092514;28;20512;-65
2023/08/25 13:11:47;;;;;;;15.00;11.00;;;;;;;;;;5091521;28;20047;-66
2023/08/25 13:14:13;;;;;;;14.55;11.02;;;;;;;;;;5093135;28;20610;-64
2023/08/25 13:16:39;;;;;;;18.90;13.15;;;;;;;;;;5092918;28;20039;-65
2023/08/25 13:19:05;;;;;;;18.15;15.32;;;;;;;;;;5092640;28;20043;-63
2023/08/25 13:21:32;;;;;;;20.05;16.98;;;;;;;;;;5092255;28;20048;-63
2023/08/25 13:23:58;;;;;;;22.63;16.92;;;;;;;;;;5092963;28;20047;-63
2023/08/25 13:26:24;;;;;;;18.63;14.63;;;;;;;;;;5092486;28;20044;-63
2023/08/25 13:28:50;;;;;;;18.42;14.25;;;;;;;;;;5091682;28;20058;-63
2023/08/25 13:31:16;;;;;;;17.63;15.00;;;;;;;;;;5092449;28;20087;-63
2023/08/25 13:33:42;;;;;;;19.55;15.07;;;;;;;;;;5092452;28;20036;-63
2023/08/25 13:36:09;;;;;;;19.08;15.40;;;;;;;;;;5092490;28;20040;-62
2023/08/25 13:38:35;;;;;;;21.85;15.60;;;;;;;;;;5092222;28;20036;-62
2023/08/25 13:41:02;;;;;;;16.10;13.00;;;;;;;;;;5092642;28;20082;-62
2023/08/25 13:43:28;;;;;;;12.68;10.77;;;;;;;;;;5092630;28;20089;-62
2023/08/25 13:45:55;;;;;;;16.88;13.32;;;;;;;;;;5092150;28;20123;-62
2023/08/25 13:48:21;;;;;;;15.73;11.65;;;;;;;;;;5092527;28;20535;-62
2023/08/25 13:50:49;;;;;;;19.55;14.45;;;;;;;;;;5072786;28;20036;-62
2023/08/25 13:53:15;;;;;;;24.17;17.60;;;;;;;;;;5071896;28;20040;-62
2023/08/25 13:55:41;;;;;;;19.70;16.65;;;;;;;;;;5072093;28;20124;-62
2023/08/25 13:58:07;;;;;;;24.48;17.50;;;;;;;;;;5085382;28;20069;-62
2023/08/25 14:00:33;;;;;;;17.95;14.68;;;;;;;;;;5090751;28;20040;-62
2023/08/25 14:03:00;;;;;;;19.45;13.40;;;;;;;;;;5091204;28;20035;-62
2023/08/25 14:05:26;;;;;;;17.23;13.15;;;;;;;;;;5091417;28;20387;-62
2023/08/25 14:07:53;;;;;;;16.88;12.88;;;;;;;;;;5090480;28;20119;-62
2023/08/25 14:10:19;;;;;;;13.23;11.02;;;;;;;;;;5091119;28;20119;-62
2023/08/25 14:12:45;;;;;;;14.80;11.55;;;;;;;;;;5091178;28;20498;-62
2023/08/25 14:15:11;;;;;;;15.88;12.77;;;;;;;;;;5090719;28;20046;-62
2023/08/25 14:17:37;;;;;;;20.45;14.93;;;;;;;;;;5091683;28;20366;-63